Aviation Digital Data Service (ADDS)

Output produced by METARs form (0517 UTC 16 February 2019)
found at http://www.aviationweather.gov/metar/data/
 
Forecast for: UDYZ (ZVARTNOTS , AM)
Text: TAF UDYZ 160500Z 1606/1706 16006KT 6000 FEW040 SCT100
Forecast period: 0600 UTC 16 February 2019 to 0600 UTC 17 February 2019
Forecast type: FROM: standard forecast or significant change
Winds: from the SSE (160 degrees) at 7 MPH (6 knots; 3.1 m/s)
Visibility: 4 miles (6 km)
Ceiling: at least 12,000 feet AGL
Clouds: few clouds at 4000 feet AGL
scattered clouds at 10000 feet AGL
Weather: no significant weather forecast for this period
Text: TEMPO 1618/1706 2000 BR
Forecast period: 1800 UTC 16 February 2019 to 0600 UTC 17 February 2019
Forecast type: TEMPORARY: The following changes expected for less than half the time period
Visibility: 1.24 miles (2.00 km)
Ceiling: unknown
Clouds: missing
Weather: BR  (mist)